CheckWX is a tool to help pilots better visualize weather data.  It is not intended as a substitute for an official pre-flight weather briefing.

14:21:09 UTC

LEHC TAF
Huesca / Pirineos Airport
Monflorite/Alcalá del Obispo, Spain
TAF LEHC 280800Z 2809/2909 26009KT 9999 SCT030 TX16/2814Z TN04/2906Z BECMG 2818/2820 VRB04KT

Mar-28@
09:00 UTC

Mar-28 @ 09:00 UTC

Mar-28@
18:00 UTC

Mar-28 @ 18:00 UTC

TAF LEHC 280800Z 2809/2909 26009KT 9999 SCT030 TX16/2814Z TN04/2906Z
Wind
  • 260° at 9 KTS
Cloud Levels
  • Scattered at 3,000' AGL

Mar-28@
18:00 UTC

Mar-28 @ 18:00 UTC

Mar-29@
09:00 UTC

Mar-29 @ 09:00 UTC

BECMG 2818/2820 VRB04KT

Becoming

Becoming Conditions expected by Sat, Mar 28, 2020 @ 20:00 UTC

Wind
  • Variable at 4 KTS
Cloud Levels
  • Scattered at 3,000' AGL